sensor_id;sensor_type;location;lat;lon;timestamp;noise_LAeq;noise_LA_min;noise_LA_max;noise_LA01;noise_LA95
60872;Laerm;46714;50.118;14.462;2024-01-15T00:02:23;65.05;46.33;77.34;;
60872;Laerm;46714;50.118;14.462;2024-01-15T00:04:49;63.83;44.31;76.23;;
60872;Laerm;46714;50.118;14.462;2024-01-15T00:07:14;64.60;50.11;72.19;;
60872;Laerm;46714;50.118;14.462;2024-01-15T00:09:40;65.72;51.12;77.73;;
60872;Laerm;46714;50.118;14.462;2024-01-15T00:12:06;63.09;45.01;75.65;;
60872;Laerm;46714;50.118;14.462;2024-01-15T00:14:31;62.81;45.45;74.16;;
60872;Laerm;46714;50.118;14.462;2024-01-15T00:16:57;64.73;47.44;76.73;;
60872;Laerm;46714;50.118;14.462;2024-01-15T00:19:22;65.33;48.80;73.05;;
60872;Laerm;46714;50.118;14.462;2024-01-15T00:21:49;64.27;45.17;73.68;;
60872;Laerm;46714;50.118;14.462;2024-01-15T00:24:14;65.09;48.69;74.06;;
60872;Laerm;46714;50.118;14.462;2024-01-15T00:26:40;65.45;49.19;73.82;;
60872;Laerm;46714;50.118;14.462;2024-01-15T00:29:08;63.38;52.57;71.41;;
60872;Laerm;46714;50.118;14.462;2024-01-15T00:31:34;64.46;49.72;73.82;;
60872;Laerm;46714;50.118;14.462;2024-01-15T00:34:00;63.62;43.68;72.81;;
60872;Laerm;46714;50.118;14.462;2024-01-15T00:36:25;63.92;47.48;72.89;;
60872;Laerm;46714;50.118;14.462;2024-01-15T00:38:51;65.53;45.17;79.98;;
60872;Laerm;46714;50.118;14.462;2024-01-15T00:41:16;64.22;48.74;73.86;;
60872;Laerm;46714;50.118;14.462;2024-01-15T00:43:44;62.03;41.89;71.66;;
60872;Laerm;46714;50.118;14.462;2024-01-15T00:46:10;61.95;41.06;74.03;;
60872;Laerm;46714;50.118;14.462;2024-01-15T00:48:35;65.23;49.34;75.66;;
60872;Laerm;46714;50.118;14.462;2024-01-15T00:51:01;61.60;42.59;73.92;;
60872;Laerm;46714;50.118;14.462;2024-01-15T00:53:26;64.94;49.19;74.44;;
60872;Laerm;46714;50.118;14.462;2024-01-15T00:55:52;65.90;43.72;81.35;;
60872;Laerm;46714;50.118;14.462;2024-01-15T00:58:18;57.03;40.13;68.86;;
60872;Laerm;46714;50.118;14.462;2024-01-15T01:00:44;63.47;42.93;74.87;;
60872;Laerm;46714;50.118;14.462;2024-01-15T01:03:09;63.52;43.86;78.72;;
60872;Laerm;46714;50.118;14.462;2024-01-15T01:05:34;63.42;46.59;73.54;;
60872;Laerm;46714;50.118;14.462;2024-01-15T01:08:00;65.48;53.99;73.60;;
60872;Laerm;46714;50.118;14.462;2024-01-15T01:10:26;63.22;49.64;72.52;;
60872;Laerm;46714;50.118;14.462;2024-01-15T01:12:51;58.55;38.95;69.03;;
60872;Laerm;46714;50.118;14.462;2024-01-15T01:15:17;60.74;41.89;71.35;;
60872;Laerm;46714;50.118;14.462;2024-01-15T01:17:42;65.64;45.91;75.05;;
60872;Laerm;46714;50.118;14.462;2024-01-15T01:20:08;61.54;45.01;71.67;;
60872;Laerm;46714;50.118;14.462;2024-01-15T01:22:34;64.75;45.07;80.42;;
60872;Laerm;46714;50.118;14.462;2024-01-15T01:25:00;61.00;44.73;72.41;;
60872;Laerm;46714;50.118;14.462;2024-01-15T01:27:25;62.74;44.58;72.90;;
60872;Laerm;46714;50.118;14.462;2024-01-15T01:29:51;61.88;46.07;73.22;;
60872;Laerm;46714;50.118;14.462;2024-01-15T01:32:17;62.03;45.75;71.17;;
60872;Laerm;46714;50.118;14.462;2024-01-15T01:34:42;64.07;45.77;73.23;;
60872;Laerm;46714;50.118;14.462;2024-01-15T01:37:08;65.09;43.44;74.17;;
60872;Laerm;46714;50.118;14.462;2024-01-15T01:39:34;62.16;42.93;72.39;;
60872;Laerm;46714;50.118;14.462;2024-01-15T01:41:59;62.26;46.15;72.31;;
60872;Laerm;46714;50.118;14.462;2024-01-15T01:44:24;62.08;43.34;73.62;;
60872;Laerm;46714;50.118;14.462;2024-01-15T01:46:50;63.48;43.81;73.59;;
60872;Laerm;46714;50.118;14.462;2024-01-15T01:49:15;65.77;47.24;80.63;;
60872;Laerm;46714;50.118;14.462;2024-01-15T01:51:41;64.61;45.54;75.33;;
60872;Laerm;46714;50.118;14.462;2024-01-15T01:54:08;63.56;39.34;74.08;;
60872;Laerm;46714;50.118;14.462;2024-01-15T01:56:35;65.02;42.59;77.01;;
60872;Laerm;46714;50.118;14.462;2024-01-15T01:59:01;63.25;44.54;73.25;;
60872;Laerm;46714;50.118;14.462;2024-01-15T02:01:28;58.65;39.92;68.70;;
60872;Laerm;46714;50.118;14.462;2024-01-15T02:03:54;63.71;42.19;75.76;;
60872;Laerm;46714;50.118;14.462;2024-01-15T02:06:22;61.58;43.86;71.30;;
60872;Laerm;46714;50.118;14.462;2024-01-15T02:08:48;66.33;45.54;77.60;;
60872;Laerm;46714;50.118;14.462;2024-01-15T02:11:13;63.01;45.97;71.62;;
60872;Laerm;46714;50.118;14.462;2024-01-15T02:13:39;63.66;45.04;75.31;;
60872;Laerm;46714;50.118;14.462;2024-01-15T02:16:05;64.65;43.99;75.63;;
60872;Laerm;46714;50.118;14.462;2024-01-15T02:18:40;63.04;43.34;74.80;;
60872;Laerm;46714;50.118;14.462;2024-01-15T02:21:05;63.67;44.15;74.15;;
60872;Laerm;46714;50.118;14.462;2024-01-15T02:23:31;62.32;47.54;72.27;;
60872;Laerm;46714;50.118;14.462;2024-01-15T02:25:56;61.69;45.04;69.61;;
60872;Laerm;46714;50.118;14.462;2024-01-15T02:28:22;64.65;41.30;74.82;;
60872;Laerm;46714;50.118;14.462;2024-01-15T02:30:47;61.33;41.89;70.49;;
60872;Laerm;46714;50.118;14.462;2024-01-15T02:33:13;65.97;52.76;75.39;;
60872;Laerm;46714;50.118;14.462;2024-01-15T02:35:38;65.38;53.41;77.19;;
60872;Laerm;46714;50.118;14.462;2024-01-15T02:38:05;63.84;46.76;75.10;;
60872;Laerm;46714;50.118;14.462;2024-01-15T02:40:30;65.18;43.54;76.39;;
60872;Laerm;46714;50.118;14.462;2024-01-15T02:42:56;65.49;45.91;73.78;;
60872;Laerm;46714;50.118;14.462;2024-01-15T02:45:22;65.17;50.80;76.29;;
60872;Laerm;46714;50.118;14.462;2024-01-15T02:47:48;64.94;47.36;74.32;;
60872;Laerm;46714;50.118;14.462;2024-01-15T02:50:13;64.43;46.95;73.27;;
60872;Laerm;46714;50.118;14.462;2024-01-15T02:52:39;64.80;46.15;77.04;;
60872;Laerm;46714;50.118;14.462;2024-01-15T02:55:05;65.99;45.11;76.40;;
60872;Laerm;46714;50.118;14.462;2024-01-15T02:57:30;61.12;42.93;68.31;;
60872;Laerm;46714;50.118;14.462;2024-01-15T02:59:56;64.04;44.15;78.13;;
60872;Laerm;46714;50.118;14.462;2024-01-15T03:02:21;65.18;49.70;75.11;;
60872;Laerm;46714;50.118;14.462;2024-01-15T03:04:46;64.47;47.02;76.81;;
60872;Laerm;46714;50.118;14.462;2024-01-15T03:07:12;64.14;49.51;72.05;;
60872;Laerm;46714;50.118;14.462;2024-01-15T03:09:38;63.37;47.72;72.76;;
60872;Laerm;46714;50.118;14.462;2024-01-15T03:12:03;63.47;44.15;73.74;;
60872;Laerm;46714;50.118;14.462;2024-01-15T03:14:29;67.13;49.02;78.57;;
60872;Laerm;46714;50.118;14.462;2024-01-15T03:16:54;66.58;54.56;73.03;;
60872;Laerm;46714;50.118;14.462;2024-01-15T03:19:20;65.77;53.32;75.26;;
60872;Laerm;46714;50.118;14.462;2024-01-15T03:21:45;65.17;50.37;73.28;;
60872;Laerm;46714;50.118;14.462;2024-01-15T03:24:11;66.09;52.66;74.00;;
60872;Laerm;46714;50.118;14.462;2024-01-15T03:26:36;65.55;50.31;76.80;;
60872;Laerm;46714;50.118;14.462;2024-01-15T03:29:01;65.65;53.79;74.68;;
60872;Laerm;46714;50.118;14.462;2024-01-15T03:31:27;65.36;52.78;73.34;;
60872;Laerm;46714;50.118;14.462;2024-01-15T03:33:52;66.09;54.51;80.66;;
60872;Laerm;46714;50.118;14.462;2024-01-15T03:36:18;65.75;57.20;74.14;;
60872;Laerm;46714;50.118;14.462;2024-01-15T03:38:43;67.17;51.76;74.30;;
60872;Laerm;46714;50.118;14.462;2024-01-15T03:41:08;67.73;54.95;75.28;;
60872;Laerm;46714;50.118;14.462;2024-01-15T03:43:34;65.40;55.96;74.87;;
60872;Laerm;46714;50.118;14.462;2024-01-15T03:45:59;67.87;54.05;74.65;;
60872;Laerm;46714;50.118;14.462;2024-01-15T03:48:25;66.45;56.89;74.69;;
60872;Laerm;46714;50.118;14.462;2024-01-15T03:50:50;67.38;56.49;76.11;;
60872;Laerm;46714;50.118;14.462;2024-01-15T03:53:16;68.44;53.99;76.60;;
60872;Laerm;46714;50.118;14.462;2024-01-15T03:55:42;66.68;55.17;75.75;;
60872;Laerm;46714;50.118;14.462;2024-01-15T03:58:07;66.96;57.56;76.18;;
60872;Laerm;46714;50.118;14.462;2024-01-15T04:00:32;68.41;58.79;76.35;;
60872;Laerm;46714;50.118;14.462;2024-01-15T04:02:58;67.88;54.94;77.53;;
60872;Laerm;46714;50.118;14.462;2024-01-15T04:05:23;67.59;53.43;75.49;;
60872;Laerm;46714;50.118;14.462;2024-01-15T04:07:49;69.16;52.69;80.26;;
60872;Laerm;46714;50.118;14.462;2024-01-15T04:10:14;68.32;56.11;75.39;;
60872;Laerm;46714;50.118;14.462;2024-01-15T04:12:40;69.79;60.91;77.08;;
60872;Laerm;46714;50.118;14.462;2024-01-15T04:15:05;70.23;64.20;75.74;;
60872;Laerm;46714;50.118;14.462;2024-01-15T04:17:31;70.19;61.63;77.60;;
60872;Laerm;46714;50.118;14.462;2024-01-15T04:19:56;69.54;61.21;78.89;;
60872;Laerm;46714;50.118;14.462;2024-01-15T04:22:22;69.96;57.59;78.00;;
60872;Laerm;46714;50.118;14.462;2024-01-15T04:24:47;69.53;57.67;76.11;;
60872;Laerm;46714;50.118;14.462;2024-01-15T04:27:13;71.54;65.90;77.91;;
60872;Laerm;46714;50.118;14.462;2024-01-15T04:29:38;71.51;62.03;79.96;;
60872;Laerm;46714;50.118;14.462;2024-01-15T04:32:04;71.47;64.88;79.18;;
60872;Laerm;46714;50.118;14.462;2024-01-15T04:34:30;71.35;62.86;81.59;;
60872;Laerm;46714;50.118;14.462;2024-01-15T04:36:55;71.81;65.55;77.33;;
60872;Laerm;46714;50.118;14.462;2024-01-15T04:39:21;71.55;66.28;77.12;;
60872;Laerm;46714;50.118;14.462;2024-01-15T04:41:47;71.15;63.14;78.68;;
60872;Laerm;46714;50.118;14.462;2024-01-15T04:44:12;71.62;65.24;77.32;;
60872;Laerm;46714;50.118;14.462;2024-01-15T04:46:38;70.63;62.43;75.67;;
60872;Laerm;46714;50.118;14.462;2024-01-15T04:49:03;72.32;63.95;76.78;;
60872;Laerm;46714;50.118;14.462;2024-01-15T04:51:29;71.61;63.45;77.46;;
60872;Laerm;46714;50.118;14.462;2024-01-15T04:53:54;72.42;63.92;78.03;;
60872;Laerm;46714;50.118;14.462;2024-01-15T04:56:19;72.09;65.50;76.06;;
60872;Laerm;46714;50.118;14.462;2024-01-15T04:58:45;70.96;64.76;77.19;;
60872;Laerm;46714;50.118;14.462;2024-01-15T05:01:10;72.70;67.36;77.70;;
60872;Laerm;46714;50.118;14.462;2024-01-15T05:03:36;73.62;68.17;79.31;;
60872;Laerm;46714;50.118;14.462;2024-01-15T05:06:01;72.42;66.92;76.96;;
60872;Laerm;46714;50.118;14.462;2024-01-15T05:08:26;73.12;68.00;78.68;;
60872;Laerm;46714;50.118;14.462;2024-01-15T05:10:52;72.85;67.47;77.47;;
60872;Laerm;46714;50.118;14.462;2024-01-15T05:13:17;72.87;67.49;78.54;;
60872;Laerm;46714;50.118;14.462;2024-01-15T05:15:43;72.78;68.02;77.12;;
60872;Laerm;46714;50.118;14.462;2024-01-15T05:18:08;72.74;66.01;78.74;;
60872;Laerm;46714;50.118;14.462;2024-01-15T05:20:34;73.56;68.18;77.98;;
60872;Laerm;46714;50.118;14.462;2024-01-15T05:22:59;73.15;66.40;78.87;;
60872;Laerm;46714;50.118;14.462;2024-01-15T05:25:24;72.94;64.73;78.07;;
60872;Laerm;46714;50.118;14.462;2024-01-15T05:27:50;72.36;65.73;76.30;;
60872;Laerm;46714;50.118;14.462;2024-01-15T05:30:15;73.20;65.14;79.00;;
60872;Laerm;46714;50.118;14.462;2024-01-15T05:32:41;73.20;67.59;78.51;;
60872;Laerm;46714;50.118;14.462;2024-01-15T05:35:07;72.21;66.74;77.92;;
60872;Laerm;46714;50.118;14.462;2024-01-15T05:37:32;72.98;66.63;79.31;;
60872;Laerm;46714;50.118;14.462;2024-01-15T05:39:58;72.59;65.74;79.59;;
60872;Laerm;46714;50.118;14.462;2024-01-15T05:42:23;72.45;66.30;78.51;;
60872;Laerm;46714;50.118;14.462;2024-01-15T05:44:49;74.03;68.72;81.46;;
60872;Laerm;46714;50.118;14.462;2024-01-15T05:47:14;73.76;68.51;78.99;;
60872;Laerm;46714;50.118;14.462;2024-01-15T05:49:40;73.02;64.55;78.70;;
60872;Laerm;46714;50.118;14.462;2024-01-15T05:52:05;72.85;62.81;76.83;;
60872;Laerm;46714;50.118;14.462;2024-01-15T05:54:31;73.33;66.83;80.79;;
60872;Laerm;46714;50.118;14.462;2024-01-15T05:56:56;72.92;66.12;80.20;;
60872;Laerm;46714;50.118;14.462;2024-01-15T05:59:22;73.43;66.07;78.64;;
60872;Laerm;46714;50.118;14.462;2024-01-15T06:01:47;78.54;66.52;99.74;;
60872;Laerm;46714;50.118;14.462;2024-01-15T06:04:12;73.57;68.70;77.60;;
60872;Laerm;46714;50.118;14.462;2024-01-15T06:06:38;73.69;66.82;78.26;;
60872;Laerm;46714;50.118;14.462;2024-01-15T06:09:03;73.83;67.89;82.96;;
60872;Laerm;46714;50.118;14.462;2024-01-15T06:11:33;76.51;67.53;94.59;;
60872;Laerm;46714;50.118;14.462;2024-01-15T06:13:59;72.10;66.65;78.29;;
60872;Laerm;46714;50.118;14.462;2024-01-15T06:16:28;72.80;65.71;77.60;;
60872;Laerm;46714;50.118;14.462;2024-01-15T06:18:54;73.04;65.59;79.25;;
60872;Laerm;46714;50.118;14.462;2024-01-15T06:21:19;76.05;69.10;92.67;;
60872;Laerm;46714;50.118;14.462;2024-01-15T06:23:45;73.49;65.89;78.78;;
60872;Laerm;46714;50.118;14.462;2024-01-15T06:26:13;79.01;66.93;99.52;;
60872;Laerm;46714;50.118;14.462;2024-01-15T06:28:38;74.42;68.14;81.03;;
60872;Laerm;46714;50.118;14.462;2024-01-15T06:31:06;74.15;67.18;82.53;;
60872;Laerm;46714;50.118;14.462;2024-01-15T06:33:31;74.71;64.65;80.26;;
60872;Laerm;46714;50.118;14.462;2024-01-15T06:35:57;80.27;65.54;99.90;;
60872;Laerm;46714;50.118;14.462;2024-01-15T06:38:22;76.36;68.59;89.61;;
60872;Laerm;46714;50.118;14.462;2024-01-15T06:40:48;74.35;70.31;83.41;;
60872;Laerm;46714;50.118;14.462;2024-01-15T06:43:14;74.00;67.14;78.91;;
60872;Laerm;46714;50.118;14.462;2024-01-15T06:45:41;72.73;62.08;77.44;;
60872;Laerm;46714;50.118;14.462;2024-01-15T06:48:06;73.23;62.00;78.15;;
60872;Laerm;46714;50.118;14.462;2024-01-15T06:50:33;73.86;67.47;78.08;;
60872;Laerm;46714;50.118;14.462;2024-01-15T06:52:58;77.62;69.11;95.02;;
60872;Laerm;46714;50.118;14.462;2024-01-15T06:55:23;82.46;68.30;101.35;;
60872;Laerm;46714;50.118;14.462;2024-01-15T06:57:49;73.71;66.17;78.54;;
60872;Laerm;46714;50.118;14.462;2024-01-15T07:00:15;73.69;66.34;81.37;;
60872;Laerm;46714;50.118;14.462;2024-01-15T07:02:40;75.07;68.94;83.31;;
60872;Laerm;46714;50.118;14.462;2024-01-15T07:05:06;74.16;67.11;77.99;;
60872;Laerm;46714;50.118;14.462;2024-01-15T07:07:32;78.63;68.49;99.19;;
60872;Laerm;46714;50.118;14.462;2024-01-15T07:09:57;72.39;64.45;82.20;;
60872;Laerm;46714;50.118;14.462;2024-01-15T07:12:22;72.62;63.43;78.86;;
60872;Laerm;46714;50.118;14.462;2024-01-15T07:14:48;72.90;66.72;78.90;;
60872;Laerm;46714;50.118;14.462;2024-01-15T07:17:14;73.11;66.52;86.26;;
60872;Laerm;46714;50.118;14.462;2024-01-15T07:19:40;75.19;65.35;92.18;;
60872;Laerm;46714;50.118;14.462;2024-01-15T07:22:06;72.22;62.42;79.04;;
60872;Laerm;46714;50.118;14.462;2024-01-15T07:24:32;72.61;58.15;76.90;;
60872;Laerm;46714;50.118;14.462;2024-01-15T07:26:59;71.57;62.43;76.69;;
60872;Laerm;46714;50.118;14.462;2024-01-15T07:29:25;72.46;64.63;78.18;;
60872;Laerm;46714;50.118;14.462;2024-01-15T07:31:51;71.42;58.63;80.71;;
60872;Laerm;46714;50.118;14.462;2024-01-15T07:34:17;71.87;64.01;78.90;;
60872;Laerm;46714;50.118;14.462;2024-01-15T07:36:45;73.93;66.32;78.11;;
60872;Laerm;46714;50.118;14.462;2024-01-15T07:39:11;76.44;67.86;93.18;;
60872;Laerm;46714;50.118;14.462;2024-01-15T07:41:36;74.25;66.82;82.25;;
60872;Laerm;46714;50.118;14.462;2024-01-15T07:44:02;74.00;66.96;80.90;;
60872;Laerm;46714;50.118;14.462;2024-01-15T07:46:27;73.66;67.46;79.31;;
60872;Laerm;46714;50.118;14.462;2024-01-15T07:48:53;74.07;65.18;78.11;;
60872;Laerm;46714;50.118;14.462;2024-01-15T07:51:24;74.23;68.16;80.59;;
60872;Laerm;46714;50.118;14.462;2024-01-15T07:53:52;74.48;65.19;82.62;;
60872;Laerm;46714;50.118;14.462;2024-01-15T07:56:18;72.59;64.07;78.21;;
60872;Laerm;46714;50.118;14.462;2024-01-15T07:58:43;73.81;66.06;79.90;;
60872;Laerm;46714;50.118;14.462;2024-01-15T08:01:09;73.53;62.74;79.07;;
60872;Laerm;46714;50.118;14.462;2024-01-15T08:03:34;73.17;63.67;81.49;;
60872;Laerm;46714;50.118;14.462;2024-01-15T08:06:00;74.08;66.83;78.73;;
60872;Laerm;46714;50.118;14.462;2024-01-15T08:08:25;72.85;63.73;78.07;;
60872;Laerm;46714;50.118;14.462;2024-01-15T08:10:53;78.33;64.92;97.95;;
60872;Laerm;46714;50.118;14.462;2024-01-15T08:13:18;73.38;63.19;80.10;;
60872;Laerm;46714;50.118;14.462;2024-01-15T08:15:45;72.67;62.41;78.40;;
60872;Laerm;46714;50.118;14.462;2024-01-15T08:18:10;73.23;67.16;78.18;;
60872;Laerm;46714;50.118;14.462;2024-01-15T08:20:37;72.93;65.21;78.72;;
60872;Laerm;46714;50.118;14.462;2024-01-15T08:23:03;74.12;65.59;85.43;;
60872;Laerm;46714;50.118;14.462;2024-01-15T08:25:28;77.72;68.43;91.06;;
60872;Laerm;46714;50.118;14.462;2024-01-15T08:27:53;75.94;64.19;91.46;;
60872;Laerm;46714;50.118;14.462;2024-01-15T08:30:19;74.00;67.05;80.09;;
60872;Laerm;46714;50.118;14.462;2024-01-15T08:32:45;73.22;64.31;77.96;;
60872;Laerm;46714;50.118;14.462;2024-01-15T08:35:11;73.43;66.34;80.77;;
60872;Laerm;46714;50.118;14.462;2024-01-15T08:37:37;73.40;66.22;78.94;;
60872;Laerm;46714;50.118;14.462;2024-01-15T08:40:03;79.37;67.21;100.00;;
60872;Laerm;46714;50.118;14.462;2024-01-15T08:42:29;72.66;62.20;77.96;;
60872;Laerm;46714;50.118;14.462;2024-01-15T08:44:54;73.30;66.40;79.93;;
60872;Laerm;46714;50.118;14.462;2024-01-15T08:47:19;74.53;66.07;84.62;;
60872;Laerm;46714;50.118;14.462;2024-01-15T08:49:45;72.70;64.26;78.83;;
60872;Laerm;46714;50.118;14.462;2024-01-15T08:52:11;72.23;62.98;78.43;;
60872;Laerm;46714;50.118;14.462;2024-01-15T08:54:36;78.39;65.24;99.66;;
60872;Laerm;46714;50.118;14.462;2024-01-15T08:57:02;73.55;67.54;77.78;;
60872;Laerm;46714;50.118;14.462;2024-01-15T08:59:27;74.17;67.29;83.43;;
60872;Laerm;46714;50.118;14.462;2024-01-15T09:01:53;77.11;68.06;97.51;;
60872;Laerm;46714;50.118;14.462;2024-01-15T09:04:19;72.89;61.91;78.61;;
60872;Laerm;46714;50.118;14.462;2024-01-15T09:06:47;73.96;68.45;78.71;;
60872;Laerm;46714;50.118;14.462;2024-01-15T09:09:13;73.72;64.36;81.34;;
60872;Laerm;46714;50.118;14.462;2024-01-15T09:11:40;73.11;66.87;78.82;;
60872;Laerm;46714;50.118;14.462;2024-01-15T09:14:05;77.73;65.96;95.30;;
60872;Laerm;46714;50.118;14.462;2024-01-15T09:16:31;73.33;67.79;77.87;;
60872;Laerm;46714;50.118;14.462;2024-01-15T09:18:56;73.32;65.19;80.02;;
60872;Laerm;46714;50.118;14.462;2024-01-15T09:21:23;75.32;69.72;88.35;;
60872;Laerm;46714;50.118;14.462;2024-01-15T09:23:49;74.08;66.80;80.76;;
60872;Laerm;46714;50.118;14.462;2024-01-15T09:26:15;73.57;62.70;80.30;;
60872;Laerm;46714;50.118;14.462;2024-01-15T09:28:40;74.07;63.95;79.53;;
60872;Laerm;46714;50.118;14.462;2024-01-15T09:31:06;74.70;70.08;81.28;;
60872;Laerm;46714;50.118;14.462;2024-01-15T09:33:31;73.89;66.38;78.37;;
60872;Laerm;46714;50.118;14.462;2024-01-15T09:35:56;74.39;69.28;77.97;;
60872;Laerm;46714;50.118;14.462;2024-01-15T09:38:22;74.77;68.84;80.04;;
60872;Laerm;46714;50.118;14.462;2024-01-15T09:40:49;74.70;68.94;80.08;;
60872;Laerm;46714;50.118;14.462;2024-01-15T09:43:15;74.07;67.61;84.09;;
60872;Laerm;46714;50.118;14.462;2024-01-15T09:45:41;74.56;69.11;80.84;;
60872;Laerm;46714;50.118;14.462;2024-01-15T09:48:07;75.26;68.03;83.65;;
60872;Laerm;46714;50.118;14.462;2024-01-15T09:50:33;74.70;68.09;79.56;;
60872;Laerm;46714;50.118;14.462;2024-01-15T09:52:59;82.02;67.95;101.35;;
60872;Laerm;46714;50.118;14.462;2024-01-15T09:55:25;74.57;69.31;78.59;;
60872;Laerm;46714;50.118;14.462;2024-01-15T09:57:52;77.54;68.87;95.24;;
60872;Laerm;46714;50.118;14.462;2024-01-15T10:00:19;75.06;69.14;80.89;;
60872;Laerm;46714;50.118;14.462;2024-01-15T10:02:45;75.09;68.47;83.45;;
60872;Laerm;46714;50.118;14.462;2024-01-15T10:05:10;74.21;68.54;80.00;;
60872;Laerm;46714;50.118;14.462;2024-01-15T10:07:37;75.01;68.55;83.09;;
60872;Laerm;46714;50.118;14.462;2024-01-15T10:10:03;75.50;69.23;84.06;;
60872;Laerm;46714;50.118;14.462;2024-01-15T10:12:29;74.64;69.03;79.08;;
60872;Laerm;46714;50.118;14.462;2024-01-15T10:14:56;74.70;67.95;80.47;;
60872;Laerm;46714;50.118;14.462;2024-01-15T10:17:21;73.92;67.69;79.24;;
60872;Laerm;46714;50.118;14.462;2024-01-15T10:19:47;74.74;70.73;79.53;;
60872;Laerm;46714;50.118;14.462;2024-01-15T10:22:14;74.39;68.35;82.63;;
60872;Laerm;46714;50.118;14.462;2024-01-15T10:24:40;74.47;68.46;79.86;;
60872;Laerm;46714;50.118;14.462;2024-01-15T10:27:09;74.87;68.77;81.36;;
60872;Laerm;46714;50.118;14.462;2024-01-15T10:29:35;74.59;67.58;81.85;;
60872;Laerm;46714;50.118;14.462;2024-01-15T10:32:02;75.10;70.35;81.56;;
60872;Laerm;46714;50.118;14.462;2024-01-15T10:34:27;74.79;70.25;79.77;;
60872;Laerm;46714;50.118;14.462;2024-01-15T10:36:54;74.94;70.08;79.84;;
60872;Laerm;46714;50.118;14.462;2024-01-15T10:39:23;74.04;64.02;78.62;;
60872;Laerm;46714;50.118;14.462;2024-01-15T10:41:49;76.55;67.22;93.31;;
60872;Laerm;46714;50.118;14.462;2024-01-15T10:44:16;75.10;70.19;79.31;;
60872;Laerm;46714;50.118;14.462;2024-01-15T10:46:43;74.46;67.89;80.56;;
60872;Laerm;46714;50.118;14.462;2024-01-15T10:49:09;74.87;69.87;79.55;;
60872;Laerm;46714;50.118;14.462;2024-01-15T10:51:36;74.09;67.93;84.29;;
60872;Laerm;46714;50.118;14.462;2024-01-15T10:54:01;74.43;65.82;84.47;;
60872;Laerm;46714;50.118;14.462;2024-01-15T10:56:29;74.70;69.57;82.81;;
60872;Laerm;46714;50.118;14.462;2024-01-15T10:58:55;73.96;68.24;78.50;;
60872;Laerm;46714;50.118;14.462;2024-01-15T11:01:22;73.99;68.55;80.08;;
60872;Laerm;46714;50.118;14.462;2024-01-15T11:03:48;76.36;67.61;93.79;;
60872;Laerm;46714;50.118;14.462;2024-01-15T11:06:17;74.71;67.77;80.45;;
60872;Laerm;46714;50.118;14.462;2024-01-15T11:08:47;74.20;69.30;80.98;;
60872;Laerm;46714;50.118;14.462;2024-01-15T11:11:15;75.12;69.53;81.88;;
60872;Laerm;46714;50.118;14.462;2024-01-15T11:13:41;74.38;68.65;78.25;;
60872;Laerm;46714;50.118;14.462;2024-01-15T11:16:10;75.00;70.20;80.27;;
60872;Laerm;46714;50.118;14.462;2024-01-15T11:21:26;74.48;68.40;80.16;;
60872;Laerm;46714;50.118;14.462;2024-01-15T11:23:55;74.63;69.46;82.28;;
60872;Laerm;46714;50.118;14.462;2024-01-15T11:29:29;74.15;67.61;79.10;;
60872;Laerm;46714;50.118;14.462;2024-01-15T11:34:20;74.17;68.12;85.37;;
60872;Laerm;46714;50.118;14.462;2024-01-15T11:41:54;74.82;70.04;79.73;;
60872;Laerm;46714;50.118;14.462;2024-01-15T11:44:21;73.56;65.81;78.16;;
60872;Laerm;46714;50.118;14.462;2024-01-15T11:47:04;75.01;69.79;78.81;;
60872;Laerm;46714;50.118;14.462;2024-01-15T11:49:49;74.43;68.58;78.91;;
60872;Laerm;46714;50.118;14.462;2024-01-15T11:52:22;74.51;67.77;81.23;;
60872;Laerm;46714;50.118;14.462;2024-01-15T11:55:14;74.34;66.60;78.82;;
60872;Laerm;46714;50.118;14.462;2024-01-15T11:57:51;73.77;66.49;79.64;;
60872;Laerm;46714;50.118;14.462;2024-01-15T12:00:17;74.41;69.02;78.84;;
60872;Laerm;46714;50.118;14.462;2024-01-15T12:02:44;74.93;70.18;81.28;;
60872;Laerm;46714;50.118;14.462;2024-01-15T12:05:15;74.54;68.71;78.33;;
60872;Laerm;46714;50.118;14.462;2024-01-15T12:07:46;76.12;63.78;94.41;;
60872;Laerm;46714;50.118;14.462;2024-01-15T12:10:17;75.02;68.39;80.96;;
60872;Laerm;46714;50.118;14.462;2024-01-15T12:12:58;73.95;66.59;81.70;;
60872;Laerm;46714;50.118;14.462;2024-01-15T12:15:25;74.22;66.81;78.20;;
60872;Laerm;46714;50.118;14.462;2024-01-15T12:17:51;74.35;66.74;80.34;;
60872;Laerm;46714;50.118;14.462;2024-01-15T12:20:18;74.38;69.16;78.90;;
60872;Laerm;46714;50.118;14.462;2024-01-15T12:22:43;74.92;69.30;79.44;;
60872;Laerm;46714;50.118;14.462;2024-01-15T12:25:10;74.43;69.49;78.78;;
60872;Laerm;46714;50.118;14.462;2024-01-15T12:27:36;74.81;70.15;79.37;;
60872;Laerm;46714;50.118;14.462;2024-01-15T12:30:02;74.31;69.26;78.24;;
60872;Laerm;46714;50.118;14.462;2024-01-15T12:32:29;74.57;67.03;81.13;;
60872;Laerm;46714;50.118;14.462;2024-01-15T12:34:54;74.60;69.07;80.69;;
60872;Laerm;46714;50.118;14.462;2024-01-15T12:37:20;74.70;67.91;80.19;;
60872;Laerm;46714;50.118;14.462;2024-01-15T12:39:46;74.65;69.12;79.12;;
60872;Laerm;46714;50.118;14.462;2024-01-15T12:42:14;75.75;69.16;85.38;;
60872;Laerm;46714;50.118;14.462;2024-01-15T12:44:40;74.77;68.23;78.30;;
60872;Laerm;46714;50.118;14.462;2024-01-15T12:47:06;78.67;68.58;97.66;;
60872;Laerm;46714;50.118;14.462;2024-01-15T12:49:32;74.84;70.31;79.52;;
60872;Laerm;46714;50.118;14.462;2024-01-15T12:51:58;74.53;66.46;78.26;;
60872;Laerm;46714;50.118;14.462;2024-01-15T12:54:24;76.72;68.01;94.48;;
60872;Laerm;46714;50.118;14.462;2024-01-15T12:56:52;74.64;67.77;81.86;;
60872;Laerm;46714;50.118;14.462;2024-01-15T12:59:18;74.61;69.48;78.96;;
60872;Laerm;46714;50.118;14.462;2024-01-15T13:01:45;74.44;64.46;79.19;;
60872;Laerm;46714;50.118;14.462;2024-01-15T13:04:12;74.76;70.35;78.60;;
60872;Laerm;46714;50.118;14.462;2024-01-15T13:06:45;74.84;70.11;78.92;;
60872;Laerm;46714;50.118;14.462;2024-01-15T13:09:11;74.35;66.81;81.98;;
60872;Laerm;46714;50.118;14.462;2024-01-15T13:11:36;75.37;69.44;91.48;;
60872;Laerm;46714;50.118;14.462;2024-01-15T13:14:02;74.20;66.10;79.93;;
60872;Laerm;46714;50.118;14.462;2024-01-15T13:16:27;80.82;68.96;101.72;;
60872;Laerm;46714;50.118;14.462;2024-01-15T13:18:54;75.13;69.31;83.05;;
60872;Laerm;46714;50.118;14.462;2024-01-15T13:21:20;77.54;68.63;96.61;;
60872;Laerm;46714;50.118;14.462;2024-01-15T13:23:46;74.67;70.97;78.37;;
60872;Laerm;46714;50.118;14.462;2024-01-15T13:26:11;74.06;71.03;77.48;;
60872;Laerm;46714;50.118;14.462;2024-01-15T13:28:37;74.46;71.33;79.26;;
60872;Laerm;46714;50.118;14.462;2024-01-15T13:31:03;74.48;68.82;78.69;;
60872;Laerm;46714;50.118;14.462;2024-01-15T13:33:30;74.87;67.88;91.40;;
60872;Laerm;46714;50.118;14.462;2024-01-15T13:35:55;79.34;69.95;101.72;;
60872;Laerm;46714;50.118;14.462;2024-01-15T13:38:20;74.88;69.05;83.92;;
60872;Laerm;46714;50.118;14.462;2024-01-15T13:40:46;74.42;67.60;79.04;;